createdAt,value
2018-06-12T00:01:01.951Z,17.90
2018-06-12T00:03:30.540Z,17.80
2018-06-12T00:05:59.137Z,17.90
2018-06-12T00:08:27.749Z,17.80
2018-06-12T00:10:56.301Z,17.90
2018-06-12T00:13:24.913Z,17.80
2018-06-12T00:15:53.465Z,17.90
2018-06-12T00:18:22.061Z,17.80
2018-06-12T00:20:50.608Z,17.80
2018-06-12T00:23:19.197Z,17.90
2018-06-12T00:25:47.773Z,18.00
2018-06-12T00:30:44.658Z,18.20
2018-06-12T00:35:41.484Z,18.20
2018-06-12T00:43:06.529Z,18.20
2018-06-12T00:48:03.330Z,18.20
2018-06-12T00:55:28.498Z,18.40
2018-06-12T00:57:57.044Z,18.30
2018-06-12T01:00:25.653Z,18.30
2018-06-12T01:52:19.381Z,18.40
2018-06-12T02:36:48.306Z,18.30
2018-06-12T02:49:09.786Z,18.10
2018-06-12T02:51:38.406Z,18.00
2018-06-12T02:54:06.975Z,17.90
2018-06-12T02:56:35.581Z,17.90
2018-06-12T03:01:32.417Z,18.10
2018-06-12T03:04:00.971Z,18.00
2018-06-12T03:13:54.258Z,17.80
2018-06-12T03:16:22.858Z,17.80
2018-06-12T03:48:30.482Z,17.90
2018-06-12T03:53:27.294Z,18.00
2018-06-12T03:58:24.076Z,18.00
2018-06-12T04:10:45.721Z,18.20
2018-06-12T13:02:18.131Z,23.40
2018-06-12T13:04:46.767Z,23.50
2018-06-12T13:34:26.023Z,24.70
2018-06-12T13:36:54.820Z,24.60
2018-06-12T13:41:51.659Z,24.60
2018-06-12T13:44:20.373Z,24.70
2018-06-12T13:46:48.956Z,24.90
2018-06-12T13:49:17.522Z,24.90
2018-06-12T13:51:46.093Z,24.90
2018-06-12T13:54:14.654Z,25.00
2018-06-12T14:01:39.756Z,24.50
2018-06-12T14:04:08.339Z,24.60
2018-06-12T14:06:36.943Z,24.70
2018-06-12T14:09:07.631Z,24.90
2018-06-12T14:11:36.219Z,24.90
2018-06-12T14:14:04.863Z,24.80
2018-06-12T14:16:33.454Z,24.80
2018-06-12T14:19:02.051Z,24.80
2018-06-12T14:21:30.609Z,24.70
2018-06-12T14:23:59.158Z,24.60
2018-06-12T14:26:27.790Z,24.60
2018-06-12T14:31:24.811Z,24.50
2018-06-12T14:33:53.485Z,24.50
2018-06-12T14:36:22.102Z,24.50
2018-06-12T14:38:50.686Z,24.40
2018-06-12T14:41:19.294Z,24.40
2018-06-12T14:43:47.893Z,24.40
2018-06-12T14:46:16.531Z,24.50
2018-06-12T14:48:45.092Z,24.30
2018-06-12T14:51:13.695Z,24.50
2018-06-12T14:53:42.494Z,24.60
2018-06-12T14:56:11.102Z,24.70
2018-06-12T14:58:39.694Z,24.60
2018-06-12T15:06:04.770Z,24.20
2018-06-12T15:08:33.345Z,24.30
2018-06-12T15:11:01.970Z,24.30
2018-06-12T15:15:58.887Z,24.20
2018-06-12T15:18:27.523Z,24.30
2018-06-12T15:20:56.101Z,24.20
2018-06-12T15:25:52.995Z,23.80
2018-06-12T15:28:21.622Z,23.70
2018-06-12T15:30:50.215Z,23.70
2018-06-12T15:33:18.918Z,23.50
2018-06-12T15:35:47.448Z,23.30
2018-06-12T15:38:16.035Z,23.30
2018-06-12T15:40:44.622Z,23.20
2018-06-12T15:43:13.291Z,23.10
2018-06-12T15:45:41.859Z,23.00
2018-06-12T15:48:10.467Z,23.00
2018-06-12T15:50:39.043Z,23.10
2018-06-12T15:53:07.672Z,23.10
2018-06-12T15:55:36.255Z,23.00
2018-06-12T16:03:01.386Z,23.10
2018-06-12T16:05:30.852Z,23.20
2018-06-12T16:07:59.479Z,23.40
2018-06-12T16:10:28.110Z,23.20
2018-06-12T16:12:56.748Z,23.20
2018-06-12T16:17:53.603Z,23.00
2018-06-12T16:20:22.166Z,23.00
2018-06-12T16:22:50.769Z,23.10
2018-06-12T16:27:47.587Z,22.90
2018-06-12T16:30:16.151Z,22.80
2018-06-12T16:32:44.797Z,22.60
2018-06-12T16:35:13.383Z,22.50
2018-06-12T16:40:10.252Z,22.50
2018-06-12T16:42:38.823Z,22.50
2018-06-12T16:45:07.487Z,22.30
2018-06-12T16:47:36.084Z,22.30
2018-06-12T16:52:32.998Z,22.00
2018-06-12T16:55:01.582Z,22.10
2018-06-12T16:57:30.172Z,21.90
2018-06-12T16:59:58.798Z,21.90
2018-06-12T17:02:27.395Z,21.80
2018-06-12T17:04:56.006Z,21.80
2018-06-12T17:07:24.681Z,21.70
2018-06-12T17:09:53.508Z,21.60
2018-06-12T17:12:22.086Z,21.50
2018-06-12T17:14:50.739Z,21.50
2018-06-12T17:17:19.332Z,21.60
2018-06-12T17:19:48.079Z,21.60
2018-06-12T17:22:16.679Z,21.40
2018-06-12T17:24:45.262Z,21.40
2018-06-12T17:27:13.843Z,21.30
2018-06-12T17:29:42.438Z,21.30
2018-06-12T17:32:11.030Z,21.20
2018-06-12T17:34:39.631Z,21.10
2018-06-12T17:37:08.198Z,21.00
2018-06-12T17:39:36.791Z,21.00
2018-06-12T17:47:01.954Z,20.70
2018-06-12T17:54:27.058Z,20.60
2018-06-12T17:59:23.862Z,20.30
2018-06-12T18:01:52.458Z,20.30
2018-06-12T18:26:41.143Z,19.80
2018-06-12T18:29:09.744Z,19.60
2018-06-12T18:31:38.355Z,19.40
2018-06-12T18:36:35.200Z,19.30
2018-06-12T18:39:04.077Z,19.30
2018-06-12T18:41:32.650Z,19.00
2018-06-12T18:44:01.212Z,19.20
2018-06-12T18:48:58.032Z,19.10
2018-06-12T18:51:26.625Z,19.00
2018-06-12T18:53:55.202Z,19.10
2018-06-12T19:01:25.307Z,19.20
2018-06-12T19:03:55.544Z,19.10
2018-06-12T19:06:25.855Z,19.20
2018-06-12T19:11:27.341Z,19.10
2018-06-12T19:21:25.629Z,18.50
2018-06-12T19:33:53.385Z,18.40
2018-06-12T19:46:16.677Z,18.10
2018-06-12T19:58:38.271Z,18.20
2018-06-12T20:03:35.181Z,18.30
2018-06-12T20:06:03.841Z,18.30
2018-06-12T20:08:32.446Z,18.30
2018-06-12T20:15:57.646Z,18.30
2018-06-12T20:18:26.258Z,18.30
2018-06-12T20:23:23.090Z,18.30
2018-06-12T20:25:51.663Z,17.90
2018-06-12T20:28:20.239Z,18.10
2018-06-12T20:38:13.583Z,18.20
2018-06-12T20:40:42.164Z,18.20
2018-06-12T20:43:10.773Z,18.20
2018-06-12T20:48:07.636Z,18.20
2018-06-12T20:55:32.826Z,17.90
2018-06-12T20:58:01.428Z,18.00
2018-06-12T21:00:29.990Z,18.10
2018-06-12T21:02:58.565Z,18.10
2018-06-12T21:05:27.150Z,18.20
2018-06-12T21:10:24.032Z,18.10
2018-06-12T21:12:52.628Z,18.10
2018-06-12T21:20:17.770Z,17.80
2018-06-12T21:25:14.631Z,17.90
2018-06-12T21:27:43.283Z,17.80
2018-06-12T21:30:11.935Z,17.60
2018-06-12T21:45:01.916Z,17.60
2018-06-12T21:47:30.516Z,17.50
2018-06-12T21:49:59.087Z,17.70
2018-06-12T21:52:27.667Z,17.50
2018-06-12T21:57:24.471Z,17.50
2018-06-12T22:02:21.277Z,17.30
2018-06-12T22:09:46.418Z,17.10
2018-06-12T22:12:14.984Z,17.20
2018-06-12T22:14:43.638Z,17.40
2018-06-12T22:17:12.301Z,17.00
2018-06-12T22:19:40.937Z,17.10
2018-06-12T22:22:09.543Z,17.10
2018-06-12T22:24:38.121Z,17.00
2018-06-12T22:27:06.709Z,17.00
2018-06-12T22:29:35.301Z,16.60
2018-06-12T22:32:03.988Z,16.60
2018-06-12T22:34:32.596Z,16.70
2018-06-12T22:37:01.159Z,16.70
2018-06-12T22:39:29.739Z,16.60
2018-06-12T22:41:58.282Z,16.80
2018-06-12T22:46:55.094Z,17.00
2018-06-12T22:49:23.705Z,16.90
2018-06-12T22:51:52.251Z,16.90
2018-06-12T22:54:20.835Z,16.90
2018-06-12T22:56:49.497Z,16.90
2018-06-12T22:59:18.049Z,16.90
2018-06-12T23:01:46.624Z,17.00
2018-06-12T23:04:15.196Z,17.00
2018-06-12T23:06:43.857Z,17.00
2018-06-12T23:09:12.438Z,17.00
2018-06-12T23:11:42.739Z,16.90
2018-06-12T23:14:11.329Z,16.60
2018-06-12T23:16:39.924Z,16.70
2018-06-12T23:19:08.547Z,16.80
2018-06-12T23:21:48.363Z,16.70
2018-06-12T23:24:16.943Z,16.80
2018-06-12T23:26:45.574Z,16.50
2018-06-12T23:31:42.366Z,16.70
2018-06-12T23:34:10.929Z,16.80
2018-06-12T23:36:39.511Z,16.60
2018-06-12T23:39:08.855Z,16.50
2018-06-12T23:41:37.438Z,16.60
2018-06-12T23:44:06.033Z,16.60
2018-06-12T23:46:34.630Z,16.50
2018-06-12T23:49:03.230Z,16.50
2018-06-12T23:51:31.834Z,16.60
2018-06-12T23:54:00.387Z,16.40
2018-06-12T23:56:28.970Z,16.50
2018-06-12T23:58:57.606Z,16.30
